Aérodrome :
LOGIN :

S'inscrire | Disclaimer

   EN    FR    IT 

 










Légende :    VFR   VFR Marginal   IFR   IFR Intensif   IFR Très Intensif
Visi : 
Plafond : 
>= 8 km
>= 3000ft
5 à 8 km
1000 à 3000 ft
1500m à 5 km
500 à 1000 ft
800 à 1500m
200 à 500 ft
< 800m
< 200 ft
Symboles :   Orages  Brouillard  Fortes neiges  Fortes précipitations  Vent > 20 kt
SIGMETs :   Divers  Orages  Givrage  Turbulence  Onde Orograph.  Cendres Volcan.







- Altitude de l'aérodrome : 34 ft
- Code IATA : BLK
- Voir les cartes d'approche


EGNH - Blackpool

DERNIER METAR :
  • 171920Z 26018KT 9999 FEW026 SCT048 09/05 Q1025

METARs EXPIRÉS :
  • 171850Z 26018KT 9999 FEW027 SCT048 09/05 Q1025
  • 171820Z 26017KT 9999 FEW027 BKN045 09/04 Q1025
  • 171750Z 27017KT 9999 FEW017 SCT031 09/03 Q1025
  • 171720Z 26016KT 9999 VCSH FEW009 SCT032 09/04 Q1026
  • 171650Z 26016KT 9999 VCSH SCT014 BKN030 09/04 Q1026

TAF TAF EGNH
Valide du 17 à 18h jusqu'au 17 à 23h UTC


171656Z 1718/1723 28015KT 9999 SCT025
PROB30
TEMPO 1718/1723 27018G28KT 9000 -SHRA
ATIS : +44 1253 343 434 (x8315)
Pas de NOTAMs connus pour ce terrain.



MET'MAP, la Météo Aéronautique d'un coup d'oeil ! - Copyright ORBIFLY Décembre 2007 - Disclaimer

ORBIFLY MET'MAP TEAM :

Programmation & Développement : Alexandra Zaïnal
Conception & Développement : Baudouin d'Aumeries
Co-Programmation & Développement : Marc-Olivier Méhu
Soutien technique & logistique : Manuel Goepfert

Contact : metmap@orbifly.com




SOURCES & CREDITS :

   NOAA